Time;durP1;ratioP1;P1;durP2;ratioP2;P2;SDS_P1;SDS_P2;PMS_P1;PMS_P2;Temp;Humidity;BMP_temperature;BMP_pressure;BME280_temperature;BME280_humidity;BME280_pressure;Samples;Min_cycle;Max_cycle;Signal;HPM_P1;HPM_P2
2022/09/08 00:00:07;;;;;;;;;;;;;;;;;;5088790;28;20249;-66
2022/09/08 00:02:32;;;;;;;;;;;;;;;;;;5088507;28;20288;-67
2022/09/08 00:04:57;;;;;;;;;;;;;;;;;;5084350;28;20336;-67
2022/09/08 00:07:22;;;;;;;;;;;;;;;;;;5086195;28;19947;-66
2022/09/08 00:09:48;;;;;;;;;;;;;;;;;;5089514;28;20327;-66
2022/09/08 00:12:13;;;;;;;;;;;;;;;;;;5086685;28;19958;-67
2022/09/08 00:14:38;;;;;;;;;;;;;;;;;;5083225;28;19909;-67
2022/09/08 00:17:03;;;;;;;;;;;;;;;;;;5088577;28;19915;-67
2022/09/08 00:19:28;;;;;;;;;;;;;;;;;;5088745;28;19912;-67
2022/09/08 00:21:53;;;;;;;;;;;;;;;;;;5088987;28;19912;-66
2022/09/08 00:24:18;;;;;;;;;;;;;;;;;;5088518;28;20287;-67
2022/09/08 00:26:44;;;;;;;;;;;;;;;;;;5088698;28;19957;-67
2022/09/08 00:29:09;;;;;;;;;;;;;;;;;;5086442;28;19916;-66
2022/09/08 00:31:35;;;;;;;;;;;;;;;;;;5087785;28;19999;-67
2022/09/08 00:34:01;;;;;;;;;;;;;;;;;;5087288;28;20346;-66
2022/09/08 00:36:27;;;;;;;;;;;;;;;;;;5086970;28;20383;-66
2022/09/08 00:38:52;;;;;;;;;;;;;;;;;;5087687;28;19912;-66
2022/09/08 00:41:17;;;;;;;;;;;;;;;;;;5088676;28;19904;-66
2022/09/08 00:43:42;;;;;;;;;;;;;;;;;;5088620;28;20382;-66
2022/09/08 00:46:08;;;;;;;;;;;;;;;;;;5088000;28;19908;-66
2022/09/08 00:48:33;;;;;;;;;;;;;;;;;;5077482;28;20047;-66
2022/09/08 00:51:01;;;;;;;;;;;;;;;;;;5068613;28;19968;-66
2022/09/08 00:53:26;;;;;;;;;;;;;;;;;;5064424;28;20319;-66
2022/09/08 00:55:51;;;;;;;;;;;;;;;;;;5068062;28;19916;-67
2022/09/08 00:58:17;;;;;;;;;;;;;;;;;;5068376;28;19919;-67
2022/09/08 01:00:42;;;;;;;;;;;;;;;;;;5069618;28;19997;-67
2022/09/08 01:03:07;;;;;;;;;;;;;;;;;;5070534;28;20261;-66
2022/09/08 01:05:32;;;;;;;;;;;;;;;;;;5069696;28;19916;-66
2022/09/08 01:13:25;;;;;;;;;;;;;;;;;;5083137;28;19988;-66
2022/09/08 01:15:50;;;;;;;;;;;;;;;;;;5085903;28;19908;-67
2022/09/08 01:18:15;;;;;;;;;;;;;;;;;;5087115;28;20371;-67
2022/09/08 01:20:40;;;;;;;;;;;;;;;;;;5087234;28;19921;-67
2022/09/08 01:23:06;;;;;;;;;;;;;;;;;;5086222;28;20287;-67
2022/09/08 01:25:31;;;;;;;;;;;;;;;;;;5088066;28;19999;-67
2022/09/08 01:27:56;;;;;;;;;;;;;;;;;;5084415;28;19911;-67
2022/09/08 01:30:21;;;;;;;;;;;;;;;;;;5085193;28;19916;-67
2022/09/08 01:32:46;;;;;;;;;;;;;;;;;;5086628;28;19908;-67
2022/09/08 01:35:12;;;;;;;;;;;;;;;;;;5087951;28;20417;-67
2022/09/08 01:37:37;;;;;;;;;;;;;;;;;;5083850;28;19915;-67
2022/09/08 01:40:02;;;;;;;;;;;;;;;;;;5088194;28;19912;-67
2022/09/08 01:42:27;;;;;;;;;;;;;;;;;;5086219;28;19912;-67
2022/09/08 01:44:52;;;;;;;;;;;;;;;;;;5086261;28;19912;-67
2022/09/08 01:47:17;;;;;;;;;;;;;;;;;;5087583;28;19908;-67
2022/09/08 01:49:43;;;;;;;;;;;;;;;;;;5088377;28;19918;-66
2022/09/08 01:52:08;;;;;;;;;;;;;;;;;;5086380;28;19908;-67
2022/09/08 01:54:34;;;;;;;;;;;;;;;;;;5087991;28;19908;-67
2022/09/08 01:56:59;;;;;;;;;;;;;;;;;;5083916;28;19920;-67
2022/09/08 01:59:24;;;;;;;;;;;;;;;;;;5087778;28;19912;-67
2022/09/08 02:01:49;;;;;;;;;;;;;;;;;;5087066;28;19987;-66
2022/09/08 02:04:14;;;;;;;;;;;;;;;;;;5085611;28;19912;-66
2022/09/08 02:06:39;;;;;;;;;;;;;;;;;;5086837;28;20291;-66
2022/09/08 02:09:04;;;;;;;;;;;;;;;;;;5086072;28;19919;-67
2022/09/08 02:11:29;;;;;;;;;;;;;;;;;;5092881;28;19904;-67
2022/09/08 02:13:55;;;;;;;;;;;;;;;;;;5093291;28;19923;-67
2022/09/08 02:16:20;;;;;;;;;;;;;;;;;;5090071;28;19915;-67
2022/09/08 02:18:46;;;;;;;;;;;;;;;;;;5091760;28;19912;-67
2022/09/08 02:21:11;;;;;;;;;;;;;;;;;;5090943;28;19915;-67
2022/09/08 02:23:36;;;;;;;;;;;;;;;;;;5092401;28;20276;-67
2022/09/08 02:26:01;;;;;;;;;;;;;;;;;;5090429;28;19940;-67
2022/09/08 02:28:26;;;;;;;;;;;;;;;;;;5090474;28;19919;-67
2022/09/08 02:30:51;;;;;;;;;;;;;;;;;;5089136;28;19908;-67
2022/09/08 02:33:17;;;;;;;;;;;;;;;;;;5090432;28;19908;-67
2022/09/08 02:35:42;;;;;;;;;;;;;;;;;;5091321;28;20002;-67
2022/09/08 02:38:07;;;;;;;;;;;;;;;;;;5087175;28;20406;-67
2022/09/08 02:40:32;;;;;;;;;;;;;;;;;;5091926;28;20361;-67
2022/09/08 02:42:58;;;;;;;;;;;;;;;;;;5090640;28;19916;-67
2022/09/08 02:45:24;;;;;;;;;;;;;;;;;;5089896;28;19922;-67
2022/09/08 02:47:49;;;;;;;;;;;;;;;;;;5088830;28;19907;-67
2022/09/08 02:50:14;;;;;;;;;;;;;;;;;;5090697;28;19959;-67
2022/09/08 02:52:39;;;;;;;;;;;;;;;;;;5089274;28;19946;-67
2022/09/08 02:55:04;;;;;;;;;;;;;;;;;;5089536;28;21805;-67
2022/09/08 02:57:29;;;;;;;;;;;;;;;;;;5092494;28;19990;-67
2022/09/08 02:59:55;;;;;;;;;;;;;;;;;;5086125;28;20417;-67
2022/09/08 03:02:21;;;;;;;;;;;;;;;;;;5089779;28;19912;-67
2022/09/08 03:04:46;;;;;;;;;;;;;;;;;;5087570;28;19912;-66
2022/09/08 03:07:11;;;;;;;;;;;;;;;;;;5090411;28;20420;-67
2022/09/08 03:09:36;;;;;;;;;;;;;;;;;;5089081;28;20391;-67
2022/09/08 03:12:01;;;;;;;;;;;;;;;;;;5090024;28;19942;-66
2022/09/08 03:14:26;;;;;;;;;;;;;;;;;;5090323;28;19914;-66
2022/09/08 03:16:51;;;;;;;;;;;;;;;;;;5087506;28;19908;-66
2022/09/08 03:19:16;;;;;;;;;;;;;;;;;;5086817;28;19955;-66
2022/09/08 03:21:42;;;;;;;;;;;;;;;;;;5085328;28;20030;-66
2022/09/08 03:24:07;;;;;;;;;;;;;;;;;;5090474;28;19903;-66
2022/09/08 03:26:32;;;;;;;;;;;;;;;;;;5085230;28;19912;-66
2022/09/08 03:28:57;;;;;;;;;;;;;;;;;;5088482;28;19920;-66
2022/09/08 03:31:22;;;;;;;;;;;;;;;;;;5089791;28;19923;-66
2022/09/08 03:33:47;;;;;;;;;;;;;;;;;;5089317;28;19907;-66
2022/09/08 03:36:12;;;;;;;;;;;;;;;;;;5087113;28;19908;-67
2022/09/08 03:38:37;;;;;;;;;;;;;;;;;;5088395;28;19920;-66
2022/09/08 03:41:03;;;;;;;;;;;;;;;;;;5086433;28;20364;-66
2022/09/08 03:43:28;;;;;;;;;;;;;;;;;;5067514;28;19912;-66
2022/09/08 03:45:53;;;;;;;;;;;;;;;;;;5088013;28;19931;-66
2022/09/08 03:48:18;;;;;;;;;;;;;;;;;;5090054;28;19915;-67
2022/09/08 03:50:43;;;;;;;;;;;;;;;;;;5088507;28;19931;-66
2022/09/08 03:53:08;;;;;;;;;;;;;;;;;;5084954;28;19908;-66
2022/09/08 03:55:33;;;;;;;;;;;;;;;;;;5090355;28;20002;-66
2022/09/08 03:57:59;;;;;;;;;;;;;;;;;;5090190;28;19992;-66
2022/09/08 04:00:24;;;;;;;;;;;;;;;;;;5086768;28;20387;-66
2022/09/08 04:02:49;;;;;;;;;;;;;;;;;;5088774;28;19908;-67
2022/09/08 04:05:14;;;;;;;;;;;;;;;;;;5086845;28;19912;-67
2022/09/08 04:07:40;;;;;;;;;;;;;;;;;;5089683;28;20367;-67
2022/09/08 04:10:07;;;;;;;;;;;;;;;;;;5086982;28;19927;-67
2022/09/08 04:12:32;;;;;;;;;;;;;;;;;;5088391;28;20368;-66
2022/09/08 04:14:57;;;;;;;;;;;;;;;;;;5088406;28;19925;-66
2022/09/08 04:17:23;;;;;;;;;;;;;;;;;;5089468;28;19911;-66
2022/09/08 04:19:50;;;;;;;;;;;;;;;;;;5089408;28;20333;-66
2022/09/08 04:22:15;;;;;;;;;;;;;;;;;;5085384;28;19912;-66
2022/09/08 04:24:40;;;;;;;;;;;;;;;;;;5090498;28;19912;-66
2022/09/08 04:27:05;;;;;;;;;;;;;;;;;;5087056;28;19924;-66
2022/09/08 04:29:30;;;;;;;;;;;;;;;;;;5087031;28;19923;-66
2022/09/08 04:31:55;;;;;;;;;;;;;;;;;;5087346;28;19908;-66
2022/09/08 04:34:21;;;;;;;;;;;;;;;;;;5088124;28;20390;-66
2022/09/08 04:36:46;;;;;;;;;;;;;;;;;;5085966;28;19916;-67
2022/09/08 04:39:11;;;;;;;;;;;;;;;;;;5088308;28;19961;-66
2022/09/08 04:41:36;;;;;;;;;;;;;;;;;;5087714;28;19953;-66
2022/09/08 04:44:02;;;;;;;;;;;;;;;;;;5088024;28;19916;-66
2022/09/08 04:46:27;;;;;;;;;;;;;;;;;;5091629;28;19916;-66
2022/09/08 04:48:52;;;;;;;;;;;;;;;;;;5087085;28;20045;-66
2022/09/08 04:51:17;;;;;;;;;;;;;;;;;;5085282;28;19973;-66
2022/09/08 04:53:43;;;;;;;;;;;;;;;;;;5070196;28;20007;-66
2022/09/08 04:56:08;;;;;;;;;;;;;;;;;;5090392;28;19908;-66
2022/09/08 04:58:33;;;;;;;;;;;;;;;;;;5085624;28;19917;-66
2022/09/08 05:00:58;;;;;;;;;;;;;;;;;;5086053;28;19912;-66
2022/09/08 05:03:23;;;;;;;;;;;;;;;;;;5088046;28;19970;-66
2022/09/08 05:05:49;;;;;;;;;;;;;;;;;;5088896;28;19914;-66
2022/09/08 05:08:14;;;;;;;;;;;;;;;;;;5087681;28;19912;-66
2022/09/08 05:10:39;;;;;;;;;;;;;;;;;;5090097;28;19904;-66
2022/09/08 05:13:04;;;;;;;;;;;;;;;;;;5089176;28;19908;-66
2022/09/08 05:15:29;;;;;;;;;;;;;;;;;;5090279;28;19914;-67
2022/09/08 05:17:55;;;;;;;;;;;;;;;;;;5089334;28;19907;-67
2022/09/08 05:20:20;;;;;;;;;;;;;;;;;;5087706;28;19916;-66
2022/09/08 05:22:45;;;;;;;;;;;;;;;;;;5087883;28;20330;-67
2022/09/08 05:25:10;;;;;;;;;;;;;;;;;;5090570;28;20308;-66
2022/09/08 05:27:35;;;;;;;;;;;;;;;;;;5088380;28;19938;-67
2022/09/08 05:30:00;;;;;;;;;;;;;;;;;;5088648;28;19926;-66
2022/09/08 05:32:26;;;;;;;;;;;;;;;;;;5070518;28;20002;-66
2022/09/08 05:34:51;;;;;;;;;;;;;;;;;;5087843;28;19975;-66
2022/09/08 05:37:16;;;;;;;;;;;;;;;;;;5068431;28;19915;-66
2022/09/08 05:39:41;;;;;;;;;;;;;;;;;;5082833;28;20327;-67
2022/09/08 05:42:06;;;;;;;;;;;;;;;;;;5087145;28;19916;-67
2022/09/08 05:44:32;;;;;;;;;;;;;;;;;;5090170;28;19936;-66
2022/09/08 05:46:57;;;;;;;;;;;;;;;;;;5092534;28;20302;-66
2022/09/08 05:49:22;;;;;;;;;;;;;;;;;;5086119;28;20257;-66
2022/09/08 05:51:49;;;;;;;;;;;;;;;;;;5086777;28;19999;-67
2022/09/08 05:54:14;;;;;;;;;;;;;;;;;;5092072;28;19908;-66
2022/09/08 05:56:39;;;;;;;;;;;;;;;;;;5093350;28;20256;-66
2022/09/08 05:59:06;;;;;;;;;;;;;;;;;;5090098;28;20437;-66
2022/09/08 06:01:31;;;;;;;;;;;;;;;;;;5086393;28;19918;-66
2022/09/08 06:03:57;;;;;;;;;;;;;;;;;;5080900;28;19920;-66
2022/09/08 06:06:22;;;;;;;;;;;;;;;;;;5082208;28;20321;-66
2022/09/08 06:08:48;;;;;;;;;;;;;;;;;;5081959;28;20400;-66
2022/09/08 06:11:13;;;;;;;;;;;;;;;;;;5087858;28;19904;-67
2022/09/08 06:13:38;;;;;;;;;;;;;;;;;;5088011;28;19969;-66
2022/09/08 06:16:04;;;;;;;;;;;;;;;;;;5086595;28;19912;-66
2022/09/08 06:18:29;;;;;;;;;;;;;;;;;;5090033;28;19958;-66
2022/09/08 06:20:54;;;;;;;;;;;;;;;;;;5089424;28;19912;-66
2022/09/08 06:23:20;;;;;;;;;;;;;;;;;;5089707;28;19903;-66
2022/09/08 06:25:45;;;;;;;;;;;;;;;;;;5089801;28;19985;-66
2022/09/08 06:28:10;;;;;;;;;;;;;;;;;;5089372;28;19940;-67
2022/09/08 06:30:35;;;;;;;;;;;;;;;;;;5088250;28;19961;-66
2022/09/08 06:33:00;;;;;;;;;;;;;;;;;;5087215;28;19907;-66
2022/09/08 06:35:25;;;;;;;;;;;;;;;;;;5086693;28;19962;-66
2022/09/08 06:37:51;;;;;;;;;;;;;;;;;;5089780;28;19915;-67
2022/09/08 06:40:16;;;;;;;;;;;;;;;;;;5089790;28;19904;-66
2022/09/08 06:42:41;;;;;;;;;;;;;;;;;;5088513;28;19981;-66
2022/09/08 06:45:06;;;;;;;;;;;;;;;;;;5089256;28;20264;-67
2022/09/08 06:47:31;;;;;;;;;;;;;;;;;;5090000;28;19904;-66
2022/09/08 06:49:56;;;;;;;;;;;;;;;;;;5087759;28;19961;-66
2022/09/08 06:52:22;;;;;;;;;;;;;;;;;;5089291;28;19953;-66
2022/09/08 06:54:47;;;;;;;;;;;;;;;;;;5093457;28;19908;-66
2022/09/08 06:57:12;;;;;;;;;;;;;;;;;;5091729;28;19967;-66
2022/09/08 06:59:37;;;;;;;;;;;;;;;;;;5093563;28;19912;-66
2022/09/08 07:02:02;;;;;;;;;;;;;;;;;;5093391;28;19908;-66
2022/09/08 07:04:27;;;;;;;;;;;;;;;;;;5093460;28;19927;-66
2022/09/08 07:06:52;;;;;;;;;;;;;;;;;;5091557;28;19990;-66
2022/09/08 07:09:18;;;;;;;;;;;;;;;;;;5090512;28;20520;-67
2022/09/08 07:11:48;;;;;;;;;;;;;;;;;;5093340;28;19946;-66
2022/09/08 07:14:13;;;;;;;;;;;;;;;;;;5093040;28;19912;-65
2022/09/08 07:16:39;;;;;;;;;;;;;;;;;;5093340;28;20382;-66
2022/09/08 07:19:04;;;;;;;;;;;;;;;;;;5091699;28;19951;-65
2022/09/08 07:21:29;;;;;;;;;;;;;;;;;;5092365;28;19916;-66
2022/09/08 07:23:54;;;;;;;;;;;;;;;;;;5092752;28;19907;-66
2022/09/08 07:26:19;;;;;;;;;;;;;;;;;;5094091;28;19904;-66
2022/09/08 07:28:44;;;;;;;;;;;;;;;;;;5092880;28;19974;-66
2022/09/08 07:31:09;;;;;;;;;;;;;;;;;;5090318;28;19911;-66
2022/09/08 07:33:34;;;;;;;;;;;;;;;;;;5093194;28;20014;-65
2022/09/08 07:36:00;;;;;;;;;;;;;;;;;;5091300;28;19911;-66
2022/09/08 07:38:25;;;;;;;;;;;;;;;;;;5091948;28;19916;-66
2022/09/08 07:40:51;;;;;;;;;;;;;;;;;;5086950;28;19939;-66
2022/09/08 07:43:16;;;;;;;;;;;;;;;;;;5092690;28;19912;-65
2022/09/08 07:45:42;;;;;;;;;;;;;;;;;;5092986;28;19904;-66
2022/09/08 07:48:07;;;;;;;;;;;;;;;;;;5088253;28;20341;-66
2022/09/08 07:53:17;;;;;;;;;;;;;;;;;;5094720;28;19910;-65
2022/09/08 07:55:42;;;;;;;;;;;;;;;;;;5092651;28;19908;-66
2022/09/08 07:58:07;;;;;;;;;;;;;;;;;;5092469;28;20604;-66
2022/09/08 08:00:34;;;;;;;;;;;;;;;;;;5090638;28;20011;-66
2022/09/08 08:03:05;;;;;;;;;;;;;;;;;;5091805;28;20349;-66
2022/09/08 08:05:30;;;;;;;;;;;;;;;;;;5088570;28;19923;-66
2022/09/08 08:07:56;;;;;;;;;;;;;;;;;;5092261;28;20576;-66
2022/09/08 08:10:21;;;;;;;;;;;;;;;;;;5089138;28;19911;-66
2022/09/08 08:12:46;;;;;;;;;;;;;;;;;;5092029;28;19930;-66
2022/09/08 08:15:11;;;;;;;;;;;;;;;;;;5091843;28;19908;-66
2022/09/08 08:17:36;;;;;;;;;;;;;;;;;;5092117;28;20003;-66
2022/09/08 08:20:01;;;;;;;;;;;;;;;;;;5089357;28;19919;-66
2022/09/08 08:22:27;;;;;;;;;;;;;;;;;;5091597;28;19914;-66
2022/09/08 08:24:52;;;;;;;;;;;;;;;;;;5091607;28;20016;-66
2022/09/08 08:27:17;;;;;;;;;;;;;;;;;;5092016;28;19904;-65
2022/09/08 08:29:42;;;;;;;;;;;;;;;;;;5090323;28;20273;-67
2022/09/08 08:32:07;;;;;;;;;;;;;;;;;;5092006;28;19908;-66
2022/09/08 08:34:32;;;;;;;;;;;;;;;;;;5089063;28;20359;-66
2022/09/08 08:36:58;;;;;;;;;;;;;;;;;;5088206;28;19919;-66
2022/09/08 08:39:23;;;;;;;;;;;;;;;;;;5091326;28;19912;-66
2022/09/08 08:41:48;;;;;;;;;;;;;;;;;;5091690;28;19908;-66
2022/09/08 08:44:13;;;;;;;;;;;;;;;;;;5086472;28;19908;-66
2022/09/08 08:46:38;;;;;;;;;;;;;;;;;;5090850;28;19914;-66
2022/09/08 08:49:03;;;;;;;;;;;;;;;;;;5088922;28;20438;-66
2022/09/08 08:51:29;;;;;;;;;;;;;;;;;;5088321;28;19943;-66
2022/09/08 08:53:54;;;;;;;;;;;;;;;;;;5089761;28;20302;-66
2022/09/08 08:56:19;;;;;;;;;;;;;;;;;;5089507;28;19915;-66
2022/09/08 08:58:44;;;;;;;;;;;;;;;;;;5089531;28;19918;-66
2022/09/08 09:01:09;;;;;;;;;;;;;;;;;;5091199;28;20027;-65
2022/09/08 09:03:34;;;;;;;;;;;;;;;;;;5089128;28;20464;-66
2022/09/08 09:05:59;;;;;;;;;;;;;;;;;;5089512;28;19915;-66
2022/09/08 09:08:25;;;;;;;;;;;;;;;;;;5089125;28;19959;-66
2022/09/08 09:10:50;;;;;;;;;;;;;;;;;;5089107;28;19908;-66
2022/09/08 09:13:15;;;;;;;;;;;;;;;;;;5090804;28;20265;-67
2022/09/08 09:15:40;;;;;;;;;;;;;;;;;;5089700;28;20409;-67
2022/09/08 09:18:05;;;;;;;;;;;;;;;;;;5089196;28;20271;-67
2022/09/08 09:20:30;;;;;;;;;;;;;;;;;;5087734;28;19911;-67
2022/09/08 09:22:55;;;;;;;;;;;;;;;;;;5090703;28;20002;-67
2022/09/08 09:25:21;;;;;;;;;;;;;;;;;;5090382;28;20363;-67
2022/09/08 09:27:46;;;;;;;;;;;;;;;;;;5090334;28;19908;-67
2022/09/08 09:30:12;;;;;;;;;;;;;;;;;;5088505;28;20018;-67
2022/09/08 09:32:37;;;;;;;;;;;;;;;;;;5089032;28;19969;-67
2022/09/08 09:35:02;;;;;;;;;;;;;;;;;;5090691;28;20366;-67
2022/09/08 09:37:27;;;;;;;;;;;;;;;;;;5085562;28;19908;-68
2022/09/08 09:39:52;;;;;;;;;;;;;;;;;;5090267;28;20443;-66
2022/09/08 09:42:17;;;;;;;;;;;;;;;;;;5089863;28;20348;-67
2022/09/08 09:44:43;;;;;;;;;;;;;;;;;;5090549;28;20374;-67
2022/09/08 09:47:08;;;;;;;;;;;;;;;;;;5088750;28;20426;-66
2022/09/08 09:49:33;;;;;;;;;;;;;;;;;;5089479;28;19915;-66
2022/09/08 09:51:58;;;;;;;;;;;;;;;;;;5090147;28;19954;-67
2022/09/08 09:54:23;;;;;;;;;;;;;;;;;;5089776;28;19912;-66
2022/09/08 09:56:48;;;;;;;;;;;;;;;;;;5090482;28;20249;-66
2022/09/08 09:59:13;;;;;;;;;;;;;;;;;;5087954;28;19918;-67
2022/09/08 10:01:39;;;;;;;;;;;;;;;;;;5090282;28;19999;-66
2022/09/08 10:04:04;;;;;;;;;;;;;;;;;;5086863;28;19916;-67
2022/09/08 10:06:29;;;;;;;;;;;;;;;;;;5086264;28;19909;-67
2022/09/08 10:08:54;;;;;;;;;;;;;;;;;;5087074;28;19916;-67
2022/09/08 10:11:19;;;;;;;;;;;;;;;;;;5090462;28;20395;-66
2022/09/08 10:13:44;;;;;;;;;;;;;;;;;;5090101;28;20249;-67
2022/09/08 10:16:09;;;;;;;;;;;;;;;;;;5089959;28;19908;-67
2022/09/08 10:18:34;;;;;;;;;;;;;;;;;;5084612;28;19923;-67
2022/09/08 10:21:00;;;;;;;;;;;;;;;;;;5087065;28;20408;-66
2022/09/08 10:23:25;;;;;;;;;;;;;;;;;;5090112;28;20392;-66
2022/09/08 10:25:50;;;;;;;;;;;;;;;;;;5090281;28;20257;-67
2022/09/08 10:28:15;;;;;;;;;;;;;;;;;;5091520;28;20253;-67
2022/09/08 10:30:40;;;;;;;;;;;;;;;;;;5094514;28;19927;-67
2022/09/08 10:33:05;;;;;;;;;;;;;;;;;;5090667;28;19908;-67
2022/09/08 10:35:30;;;;;;;;;;;;;;;;;;5093178;28;19994;-67
2022/09/08 10:37:56;;;;;;;;;;;;;;;;;;5093168;28;20229;-67
2022/09/08 10:40:21;;;;;;;;;;;;;;;;;;5094059;28;19910;-67
2022/09/08 10:42:46;;;;;;;;;;;;;;;;;;5091035;28;19912;-67
2022/09/08 10:45:11;;;;;;;;;;;;;;;;;;5092933;28;19911;-67
2022/09/08 10:47:36;;;;;;;;;;;;;;;;;;5091714;28;19934;-67
2022/09/08 10:50:01;;;;;;;;;;;;;;;;;;5093349;28;19908;-67
2022/09/08 10:52:27;;;;;;;;;;;;;;;;;;5091507;28;19908;-67
2022/09/08 10:54:52;;;;;;;;;;;;;;;;;;5093202;28;19998;-67
2022/09/08 10:57:18;;;;;;;;;;;;;;;;;;5093606;28;19912;-67
2022/09/08 10:59:43;;;;;;;;;;;;;;;;;;5093341;28;19909;-66
2022/09/08 11:02:08;;;;;;;;;;;;;;;;;;5091762;28;19915;-67
2022/09/08 11:04:33;;;;;;;;;;;;;;;;;;5093530;28;19912;-66
2022/09/08 11:06:59;;;;;;;;;;;;;;;;;;5093748;28;20366;-66
2022/09/08 11:09:24;;;;;;;;;;;;;;;;;;5090397;28;19923;-67
2022/09/08 11:11:49;;;;;;;;;;;;;;;;;;5093212;28;19908;-66
2022/09/08 11:14:15;;;;;;;;;;;;;;;;;;5094306;28;20069;-66
2022/09/08 11:16:41;;;;;;;;;;;;;;;;;;5089174;28;20364;-67
2022/09/08 11:19:06;;;;;;;;;;;;;;;;;;5093166;28;19911;-66
2022/09/08 11:21:31;;;;;;;;;;;;;;;;;;5089193;28;20005;-66
2022/09/08 11:23:56;;;;;;;;;;;;;;;;;;5092680;28;19970;-67
2022/09/08 11:26:22;;;;;;;;;;;;;;;;;;5092903;28;19906;-67
2022/09/08 11:28:47;;;;;;;;;;;;;;;;;;5092355;28;19912;-67
2022/09/08 11:31:12;;;;;;;;;;;;;;;;;;5089365;28;19915;-67
2022/09/08 11:33:37;;;;;;;;;;;;;;;;;;5092609;28;19912;-67
2022/09/08 11:36:02;;;;;;;;;;;;;;;;;;5092609;28;19904;-67
2022/09/08 11:38:27;;;;;;;;;;;;;;;;;;5089813;28;19999;-67
2022/09/08 11:40:52;;;;;;;;;;;;;;;;;;5092947;28;20001;-67
2022/09/08 11:43:17;;;;;;;;;;;;;;;;;;5092505;28;19904;-67
2022/09/08 11:45:42;;;;;;;;;;;;;;;;;;5091291;28;19916;-67
2022/09/08 11:48:08;;;;;;;;;;;;;;;;;;5092945;28;20375;-68
2022/09/08 11:50:33;;;;;;;;;;;;;;;;;;5092561;28;19953;-68
2022/09/08 11:52:58;;;;;;;;;;;;;;;;;;5092500;28;19912;-67
2022/09/08 11:55:24;;;;;;;;;;;;;;;;;;5091753;28;19945;-67
2022/09/08 11:57:50;;;;;;;;;;;;;;;;;;5090747;28;19908;-67
2022/09/08 12:00:15;;;;;;;;;;;;;;;;;;5094283;28;19915;-67
2022/09/08 12:02:40;;;;;;;;;;;;;;;;;;5090899;28;19952;-67
2022/09/08 12:05:05;;;;;;;;;;;;;;;;;;5092274;28;19916;-67
2022/09/08 12:07:30;;;;;;;;;;;;;;;;;;5092376;28;19933;-67
2022/09/08 12:09:55;;;;;;;;;;;;;;;;;;5088631;28;19923;-68
2022/09/08 12:12:20;;;;;;;;;;;;;;;;;;5092158;28;20404;-68
2022/09/08 12:14:46;;;;;;;;;;;;;;;;;;5092073;28;19954;-67
2022/09/08 12:17:11;;;;;;;;;;;;;;;;;;5088379;28;19960;-67
2022/09/08 12:19:36;;;;;;;;;;;;;;;;;;5090738;28;19943;-67
2022/09/08 12:22:01;;;;;;;;;;;;;;;;;;5091593;28;20367;-67
2022/09/08 12:24:26;;;;;;;;;;;;;;;;;;5091816;28;19912;-66
2022/09/08 12:26:51;;;;;;;;;;;;;;;;;;5088501;28;19915;-67
2022/09/08 12:29:16;;;;;;;;;;;;;;;;;;5091544;28;19908;-67
2022/09/08 12:31:41;;;;;;;;;;;;;;;;;;5089686;28;20287;-67
2022/09/08 12:34:07;;;;;;;;;;;;;;;;;;5091739;28;19949;-67
2022/09/08 12:36:32;;;;;;;;;;;;;;;;;;5091439;28;19912;-67
2022/09/08 12:38:58;;;;;;;;;;;;;;;;;;5091342;28;20467;-67
2022/09/08 12:41:23;;;;;;;;;;;;;;;;;;5091676;28;20311;-67
2022/09/08 12:43:48;;;;;;;;;;;;;;;;;;5088944;28;19912;-67
2022/09/08 12:46:13;;;;;;;;;;;;;;;;;;5090589;28;19904;-67
2022/09/08 12:48:39;;;;;;;;;;;;;;;;;;5088583;28;19944;-67
2022/09/08 12:51:04;;;;;;;;;;;;;;;;;;5088822;28;19908;-67
2022/09/08 12:53:29;;;;;;;;;;;;;;;;;;5090571;28;19908;-67
2022/09/08 12:55:55;;;;;;;;;;;;;;;;;;5091135;28;19904;-67
2022/09/08 12:58:20;;;;;;;;;;;;;;;;;;5089024;28;19916;-67
2022/09/08 13:00:45;;;;;;;;;;;;;;;;;;5089150;28;20007;-67
2022/09/08 13:03:10;;;;;;;;;;;;;;;;;;5088365;28;19911;-67
2022/09/08 13:05:35;;;;;;;;;;;;;;;;;;5085667;28;19927;-67
2022/09/08 13:08:00;;;;;;;;;;;;;;;;;;5089939;28;19958;-67
2022/09/08 13:10:25;;;;;;;;;;;;;;;;;;5087083;28;19916;-67
2022/09/08 13:12:50;;;;;;;;;;;;;;;;;;5092972;28;19970;-67
2022/09/08 13:15:15;;;;;;;;;;;;;;;;;;5085391;28;19917;-67
2022/09/08 13:17:41;;;;;;;;;;;;;;;;;;5092336;28;19908;-67
2022/09/08 13:20:06;;;;;;;;;;;;;;;;;;5090823;28;19908;-67
2022/09/08 13:22:31;;;;;;;;;;;;;;;;;;5088579;28;20377;-67
2022/09/08 13:24:56;;;;;;;;;;;;;;;;;;5090983;28;19904;-67
2022/09/08 13:27:21;;;;;;;;;;;;;;;;;;5090621;28;20010;-67
2022/09/08 13:29:46;;;;;;;;;;;;;;;;;;5089291;28;20303;-67
2022/09/08 13:32:11;;;;;;;;;;;;;;;;;;5084784;28;19993;-67
2022/09/08 13:34:36;;;;;;;;;;;;;;;;;;5090661;28;20014;-67
2022/09/08 13:37:02;;;;;;;;;;;;;;;;;;5090853;28;19904;-67
2022/09/08 13:39:27;;;;;;;;;;;;;;;;;;5090693;28;20376;-67
2022/09/08 13:41:52;;;;;;;;;;;;;;;;;;5088082;28;19955;-67
2022/09/08 13:44:17;;;;;;;;;;;;;;;;;;5090183;28;19934;-68
2022/09/08 13:46:42;;;;;;;;;;;;;;;;;;5088597;28;19908;-67
2022/09/08 13:49:07;;;;;;;;;;;;;;;;;;5090492;28;19908;-67
2022/09/08 13:51:32;;;;;;;;;;;;;;;;;;5087794;28;20027;-67
2022/09/08 13:53:57;;;;;;;;;;;;;;;;;;5089863;28;19946;-67
2022/09/08 13:56:23;;;;;;;;;;;;;;;;;;5089981;28;20306;-67
2022/09/08 13:58:48;;;;;;;;;;;;;;;;;;5088788;28;19944;-66
2022/09/08 14:01:13;;;;;;;;;;;;;;;;;;5082403;28;20288;-67
2022/09/08 14:03:38;;;;;;;;;;;;;;;;;;5092859;28;19908;-67
2022/09/08 14:06:03;;;;;;;;;;;;;;;;;;5093598;28;19908;-67
2022/09/08 14:08:29;;;;;;;;;;;;;;;;;;5094864;28;19957;-66
2022/09/08 14:10:55;;;;;;;;;;;;;;;;;;5092220;28;19912;-66
2022/09/08 14:13:20;;;;;;;;;;;;;;;;;;5093543;28;20023;-67
2022/09/08 14:15:45;;;;;;;;;;;;;;;;;;5092219;28;19908;-67
2022/09/08 14:18:11;;;;;;;;;;;;;;;;;;5092469;28;19908;-67
2022/09/08 14:20:36;;;;;;;;;;;;;;;;;;5094456;28;20337;-66
2022/09/08 14:23:01;;;;;;;;;;;;;;;;;;5092530;28;19916;-66
2022/09/08 14:25:26;;;;;;;;;;;;;;;;;;5093322;28;19908;-66
2022/09/08 14:27:51;;;;;;;;;;;;;;;;;;5094572;28;19904;-66
2022/09/08 14:30:16;;;;;;;;;;;;;;;;;;5092219;28;20469;-66
2022/09/08 14:32:42;;;;;;;;;;;;;;;;;;5093729;28;19904;-66
2022/09/08 14:35:07;;;;;;;;;;;;;;;;;;5093046;28;19915;-67
2022/09/08 14:37:35;;;;;;;;;;;;;;;;;;5093806;28;20309;-66
2022/09/08 14:40:01;;;;;;;;;;;;;;;;;;5094253;28;19957;-66
2022/09/08 14:42:26;;;;;;;;;;;;;;;;;;5093119;28;19908;-66
2022/09/08 14:44:51;;;;;;;;;;;;;;;;;;5089790;28;19908;-66
2022/09/08 14:47:16;;;;;;;;;;;;;;;;;;5089124;28;19912;-66
2022/09/08 14:49:42;;;;;;;;;;;;;;;;;;5093322;28;19959;-66
2022/09/08 14:52:08;;;;;;;;;;;;;;;;;;5093742;28;19911;-66
2022/09/08 14:54:35;;;;;;;;;;;;;;;;;;5089511;28;19908;-66
2022/09/08 14:57:00;;;;;;;;;;;;;;;;;;5090566;28;19919;-66
2022/09/08 14:59:26;;;;;;;;;;;;;;;;;;5093752;28;19908;-66
2022/09/08 15:01:52;;;;;;;;;;;;;;;;;;5086102;28;20019;-66
2022/09/08 15:04:17;;;;;;;;;;;;;;;;;;5089545;28;21663;-66
2022/09/08 15:06:42;;;;;;;;;;;;;;;;;;5088111;28;20272;-66
2022/09/08 15:09:07;;;;;;;;;;;;;;;;;;5087184;28;19911;-66
2022/09/08 15:11:33;;;;;;;;;;;;;;;;;;5089704;28;19951;-66
2022/09/08 15:13:58;;;;;;;;;;;;;;;;;;5085865;28;19970;-66
2022/09/08 15:16:23;;;;;;;;;;;;;;;;;;5084045;28;19912;-65
2022/09/08 15:18:49;;;;;;;;;;;;;;;;;;5090324;28;19943;-66
2022/09/08 15:21:15;;;;;;;;;;;;;;;;;;5091735;28;20288;-66
2022/09/08 15:23:40;;;;;;;;;;;;;;;;;;5093533;28;20326;-66
2022/09/08 15:26:06;;;;;;;;;;;;;;;;;;5092952;28;19912;-66
2022/09/08 15:28:31;;;;;;;;;;;;;;;;;;5092147;28;19915;-66
2022/09/08 15:30:57;;;;;;;;;;;;;;;;;;5092282;28;19912;-66
2022/09/08 15:33:22;;;;;;;;;;;;;;;;;;5090154;28;20303;-66
2022/09/08 15:35:47;;;;;;;;;;;;;;;;;;5092189;28;19951;-66
2022/09/08 15:38:12;;;;;;;;;;;;;;;;;;5092815;28;19915;-66
2022/09/08 15:40:37;;;;;;;;;;;;;;;;;;5080852;28;20279;-65
2022/09/08 15:43:04;;;;;;;;;;;;;;;;;;5076056;28;20015;-66
2022/09/08 15:45:30;;;;;;;;;;;;;;;;;;5086146;28;19916;-66
2022/09/08 15:47:55;;;;;;;;;;;;;;;;;;5092143;28;20400;-66
2022/09/08 15:50:20;;;;;;;;;;;;;;;;;;5088812;28;19912;-66
2022/09/08 15:52:45;;;;;;;;;;;;;;;;;;5091232;28;19982;-65
2022/09/08 15:55:11;;;;;;;;;;;;;;;;;;5087281;28;19908;-66
2022/09/08 15:57:37;;;;;;;;;;;;;;;;;;5092545;28;20296;-65
2022/09/08 16:00:07;;;;;;;;;;;;;;;;;;5091486;28;19908;-66
2022/09/08 16:02:35;;;;;;;;;;;;;;;;;;5091742;28;19908;-66
2022/09/08 16:05:00;;;;;;;;;;;;;;;;;;5091651;28;19938;-65
2022/09/08 16:07:25;;;;;;;;;;;;;;;;;;5091038;28;20018;-66
2022/09/08 16:09:50;;;;;;;;;;;;;;;;;;5091869;28;19912;-66
2022/09/08 16:12:16;;;;;;;;;;;;;;;;;;5092155;28;19922;-65
2022/09/08 16:14:41;;;;;;;;;;;;;;;;;;5092050;28;19995;-65
2022/09/08 16:17:07;;;;;;;;;;;;;;;;;;5089549;28;19908;-66
2022/09/08 16:19:32;;;;;;;;;;;;;;;;;;5088750;28;19954;-65
2022/09/08 16:21:57;;;;;;;;;;;;;;;;;;5091779;28;19919;-65
2022/09/08 16:24:22;;;;;;;;;;;;;;;;;;5090796;28;19914;-66
2022/09/08 16:26:47;;;;;;;;;;;;;;;;;;5089409;28;19951;-65
2022/09/08 16:29:15;;;;;;;;;;;;;;;;;;5091893;28;19915;-65
2022/09/08 16:31:40;;;;;;;;;;;;;;;;;;5086203;28;20287;-65
2022/09/08 16:34:05;;;;;;;;;;;;;;;;;;5090030;28;19912;-65
2022/09/08 16:36:31;;;;;;;;;;;;;;;;;;5091489;28;19945;-65
2022/09/08 16:39:00;;;;;;;;;;;;;;;;;;5091755;28;19908;-65